Huvudsida
METAR-TAF:

METAR-TAF

Flygplatser :

Starptautiskā lidosta "Liepāja"

Liepāja, Lettland

latitud: 56-31N, longitud: 021-05E, höjd: 5 m

Aktuellt väderrapport

Denna rapport gjordes för 15 minuter sedan, klockan 06:20 UTC
Vind 15 kt från sydväst
Temperatur 20°C
Fuktighet 78%
Tryck 1007 hPa
Sikt 10 km eller mer

METAR: EVLA 210620Z AUTO 22015KT 9999 FEW058/// SCT085/// 20/16 Q1007

Tid: 09:35 (06:35 UTC)

Väderprognos

Denna rapport gjordes för 1 timme och 32 minuter sedan, klockan 05:03 UTC
Prognos gäller från 21 kl. 06 UTC till 22 kl. 06 UTC
Vind 13 kt från sydväst
Sikt 10 km eller mer
Brutna moln på en höjd av 4000 ft
Temporärt
från 21 kl. 06 UTC till 21 kl. 10 UTC
Spridda moln på en höjd av 3000 ft, Cumulonimbus.
Temporärt
från 21 kl. 15 UTC till 21 kl. 21 UTC
Sikt: 3000 m
Brutna moln på en höjd av 1000 ft
Brutna moln på en höjd av 3000 ft, Cumulonimbus.
åska, regn

TAF: EVLA 210503Z 2106/2206 23013KT 9999 BKN040 TEMPO 2106/2110 SCT030CB TEMPO 2115/2121 3000 TSRA BKN010 BKN030CB

Aktuella väderrapporter och prognoser från 4000 flygplatser (METAR- och TAF-rapporter).

De tillgängliga stationerna syns som gula och röda prickar på kartan.

För musen över prickarna för att se namnen på stationerna.

Klicka sedan för att få väderrapporter och prognoser.

För att ändra kartan: Klicka på de gröna knapparna med ett svart kors på för att zooma in; den gröna knappen med ett streck på för att zooma ut; eller på de gröna pilarna för angränsande kartor.


METAR-TAF: